KALW/ALW METAR and TAF weather

Enter ICAO airport designator
Station Type Date Time Source
KALW METAR 2021/09/16 09:53 UTC NOAA

KALW 160953Z AUTO 18006KT 10SM CLR 10/M01 A3005 RMK AO2 SLP172 T01001006


Station Type Date Time Source
KALW Decoded METAR 2021/09/16 09:53 UTC NOAA

WALLA WALLA REGIONAL AIRPORT, WA, United States (KALW) 46-06N 118-17W 363M
Sep 16, 2021 - 05:53 AM EDT / 2021.09.16 0953 UTC
Wind: from the S (180 degrees) at 7 MPH (6 KT):0
Visibility: 10 mile(s):0
Sky conditions: clear
Temperature: 50.0 F (10.0 C)
Dew Point: 30.9 F (-0.6 C)
Relative Humidity: 47%
Pressure (altimeter): 30.05 in. Hg (1017 hPa)
ob: KALW 160953Z AUTO 18006KT 10SM CLR 10/M01 A3005 RMK AO2 SLP172 T01001006
cycle: 10

Station Type Date Time Source
KALW TAF 2021/09/16 06:22 UTC NOAA

TAF KALW 160520Z 1606/1706 22009KT P6SM FEW250
FM160800 17005KT P6SM SKC
FM161700 28006KT P6SM SKC
FM162200 36006KT P6SM SKC

Example: see airport list